createdAt,value
2022-11-07T00:01:23.959Z,81.06
2022-11-07T00:04:31.301Z,81.08
2022-11-07T00:07:34.362Z,81.13
2022-11-07T00:10:37.328Z,81.15
2022-11-07T00:13:40.312Z,81.18
2022-11-07T00:16:44.869Z,81.22
2022-11-07T00:19:49.337Z,81.23
2022-11-07T00:22:52.309Z,81.18
2022-11-07T00:26:00.768Z,81.15
2022-11-07T00:29:06.517Z,81.17
2022-11-07T00:32:09.501Z,81.07
2022-11-07T00:35:12.421Z,81.11
2022-11-07T00:38:15.564Z,81.22
2022-11-07T00:41:19.302Z,81.28
2022-11-07T00:44:22.854Z,81.23
2022-11-07T00:47:25.820Z,81.18
2022-11-07T00:50:28.754Z,81.19
2022-11-07T00:53:31.686Z,81.17
2022-11-07T00:56:34.676Z,81.16
2022-11-07T00:59:37.551Z,81.17
2022-11-07T01:02:40.541Z,81.17
2022-11-07T01:05:43.568Z,81.13
2022-11-07T01:08:46.567Z,81.10
2022-11-07T01:11:49.980Z,81.08
2022-11-07T01:14:52.893Z,81.09
2022-11-07T01:17:55.884Z,81.11
2022-11-07T01:20:58.902Z,81.15
2022-11-07T01:24:03.603Z,81.18
2022-11-07T01:27:06.603Z,81.27
2022-11-07T01:30:10.121Z,81.27
2022-11-07T01:33:13.644Z,81.29
2022-11-07T01:36:17.981Z,81.34
2022-11-07T01:39:20.877Z,81.40
2022-11-07T01:42:24.463Z,81.44
2022-11-07T01:45:29.879Z,81.47
2022-11-07T01:48:33.053Z,81.51
2022-11-07T01:51:41.721Z,81.56
2022-11-07T01:54:55.088Z,81.53
2022-11-07T01:58:03.186Z,81.59
2022-11-07T02:01:06.087Z,81.63
2022-11-07T02:04:10.518Z,81.67
2022-11-07T02:07:18.812Z,81.66
2022-11-07T02:10:21.890Z,81.68
2022-11-07T02:13:28.102Z,81.68
2022-11-07T02:16:32.844Z,81.66
2022-11-07T02:19:49.890Z,81.67
2022-11-07T02:22:57.218Z,81.68
2022-11-07T02:26:00.361Z,81.73
2022-11-07T02:29:09.478Z,81.71
2022-11-07T02:32:12.867Z,81.68
2022-11-07T02:35:46.626Z,81.67
2022-11-07T02:38:57.507Z,81.68
2022-11-07T02:42:02.583Z,81.68
2022-11-07T02:45:06.351Z,81.74
2022-11-07T02:48:09.584Z,81.81
2022-11-07T02:51:13.211Z,81.81
2022-11-07T02:54:16.184Z,81.79
2022-11-07T02:57:19.119Z,81.82
2022-11-07T03:00:22.151Z,81.87
2022-11-07T03:03:25.109Z,81.89
2022-11-07T03:06:28.364Z,81.92
2022-11-07T03:09:31.495Z,81.97
2022-11-07T03:12:34.606Z,81.92
2022-11-07T03:15:37.534Z,81.92
2022-11-07T03:18:40.619Z,81.86
2022-11-07T03:21:43.577Z,81.84
2022-11-07T03:24:46.561Z,81.86
2022-11-07T03:27:50.417Z,81.88
2022-11-07T03:30:53.731Z,81.89
2022-11-07T03:33:56.821Z,81.93
2022-11-07T03:36:59.772Z,81.98
2022-11-07T03:40:02.836Z,81.94
2022-11-07T03:43:05.856Z,81.89
2022-11-07T03:46:08.792Z,81.82
2022-11-07T03:49:11.715Z,81.74
2022-11-07T03:52:14.641Z,81.63
2022-11-07T03:55:18.374Z,81.50
2022-11-07T03:58:21.789Z,81.37
2022-11-07T04:01:24.857Z,81.23
2022-11-07T04:04:28.069Z,81.14
2022-11-07T04:07:31.069Z,81.10
2022-11-07T04:10:34.055Z,80.98
2022-11-07T04:13:55.860Z,80.93
2022-11-07T04:17:17.459Z,80.76
2022-11-07T04:20:20.577Z,80.70
2022-11-07T04:23:23.541Z,80.67
2022-11-07T04:26:45.070Z,80.64
2022-11-07T04:29:48.039Z,80.66
2022-11-07T04:32:56.904Z,80.78
2022-11-07T04:35:59.953Z,80.97
2022-11-07T04:39:03.038Z,81.10
2022-11-07T04:42:05.998Z,81.25
2022-11-07T04:45:09.595Z,81.29
2022-11-07T04:48:12.942Z,81.29
2022-11-07T04:51:20.638Z,81.25
2022-11-07T04:54:23.745Z,81.14
2022-11-07T04:57:26.695Z,81.02
2022-11-07T05:00:29.665Z,81.00
2022-11-07T05:03:36.218Z,80.95
2022-11-07T05:06:42.105Z,80.93
2022-11-07T05:09:45.081Z,81.05
2022-11-07T05:12:48.134Z,81.05
2022-11-07T05:15:51.228Z,81.01
2022-11-07T05:18:54.192Z,81.00
2022-11-07T05:22:15.318Z,81.11
2022-11-07T05:25:18.315Z,81.24
2022-11-07T05:28:30.302Z,81.38
2022-11-07T05:31:38.453Z,81.48
2022-11-07T05:34:41.486Z,81.60
2022-11-07T05:37:44.445Z,81.75
2022-11-07T05:40:47.431Z,81.88
2022-11-07T05:43:50.385Z,82.04
2022-11-07T05:46:53.250Z,82.14
2022-11-07T05:49:56.205Z,82.20
2022-11-07T05:52:59.379Z,82.25
2022-11-07T05:56:02.423Z,82.30
2022-11-07T05:59:05.388Z,82.29
2022-11-07T06:02:08.420Z,82.29
2022-11-07T06:05:12.328Z,82.30
2022-11-07T06:08:15.784Z,82.27
2022-11-07T06:11:18.796Z,82.22
2022-11-07T06:14:21.690Z,82.13
2022-11-07T06:17:24.679Z,81.99
2022-11-07T06:20:27.964Z,81.85
2022-11-07T06:23:30.857Z,81.65
2022-11-07T06:26:33.785Z,81.44
2022-11-07T06:29:36.685Z,81.32
2022-11-07T06:32:45.346Z,81.19
2022-11-07T06:35:48.473Z,81.04
2022-11-07T06:38:55.069Z,80.87
2022-11-07T06:41:57.950Z,80.77
2022-11-07T06:45:00.846Z,80.62
2022-11-07T06:48:04.537Z,80.48
2022-11-07T06:51:10.042Z,80.35
2022-11-07T06:54:13.392Z,80.33
2022-11-07T06:57:16.536Z,80.27
2022-11-07T07:00:19.626Z,80.26
2022-11-07T07:03:22.514Z,80.22
2022-11-07T07:06:25.512Z,80.14
2022-11-07T07:09:28.507Z,80.11
2022-11-07T07:12:31.457Z,80.01
2022-11-07T07:15:49.387Z,79.97
2022-11-07T07:18:53.626Z,79.89
2022-11-07T07:21:56.808Z,79.77
2022-11-07T07:24:59.768Z,79.60
2022-11-07T07:28:02.642Z,79.44
2022-11-07T07:31:14.589Z,79.29
2022-11-07T07:34:17.557Z,79.12
2022-11-07T07:37:20.504Z,78.89
2022-11-07T07:40:23.495Z,78.74
2022-11-07T07:43:27.855Z,78.60
2022-11-07T07:46:30.830Z,78.36
2022-11-07T07:49:33.845Z,78.17
2022-11-07T07:52:37.746Z,77.97
2022-11-07T07:55:41.759Z,77.81
2022-11-07T07:58:45.762Z,77.53
2022-11-07T08:01:53.555Z,77.38
2022-11-07T08:04:59.834Z,77.22
2022-11-07T08:08:02.856Z,77.10
2022-11-07T08:11:08.644Z,76.80
2022-11-07T08:14:11.912Z,76.44
2022-11-07T08:17:14.904Z,76.16
2022-11-07T08:20:24.615Z,75.74
2022-11-07T08:23:27.758Z,75.71
2022-11-07T08:26:31.461Z,75.47
2022-11-07T08:29:34.503Z,75.13
2022-11-07T08:32:37.543Z,74.98
2022-11-07T08:35:42.731Z,74.77
2022-11-07T08:38:46.009Z,74.75
2022-11-07T08:41:49.055Z,74.60
2022-11-07T08:44:52.187Z,74.62
2022-11-07T08:47:59.347Z,74.43
2022-11-07T08:51:05.200Z,74.13
2022-11-07T08:54:08.229Z,73.98
2022-11-07T08:57:11.668Z,73.90
2022-11-07T09:00:14.861Z,73.71
2022-11-07T09:03:39.128Z,73.60
2022-11-07T09:06:42.451Z,73.33
2022-11-07T09:09:45.460Z,73.16
2022-11-07T09:12:49.816Z,72.99
2022-11-07T09:15:59.408Z,73.00
2022-11-07T09:19:04.834Z,72.98
2022-11-07T09:22:07.968Z,72.83
2022-11-07T09:25:11.537Z,72.73
2022-11-07T09:28:15.197Z,72.63
2022-11-07T09:31:20.549Z,72.41
2022-11-07T09:34:23.552Z,72.17
2022-11-07T09:37:26.611Z,72.07
2022-11-07T09:40:52.697Z,71.99
2022-11-07T09:44:11.080Z,71.96
2022-11-07T09:47:29.451Z,71.89
2022-11-07T09:50:39.208Z,71.82
2022-11-07T09:53:47.372Z,71.78
2022-11-07T09:56:51.195Z,73.48
2022-11-07T09:59:57.785Z,72.53
2022-11-07T10:03:02.270Z,72.00
2022-11-07T10:06:27.302Z,71.52
2022-11-07T10:09:57.517Z,71.44
2022-11-07T10:13:34.825Z,71.32
2022-11-07T10:17:09.021Z,70.98
2022-11-07T10:20:30.320Z,70.90
2022-11-07T10:23:52.333Z,70.80
2022-11-07T10:26:56.665Z,70.68
2022-11-07T10:30:01.525Z,70.76
2022-11-07T10:33:20.979Z,70.62
2022-11-07T10:36:30.128Z,70.30
2022-11-07T10:39:33.147Z,70.31
2022-11-07T10:42:36.135Z,69.97
2022-11-07T10:45:40.112Z,69.75
2022-11-07T10:48:53.423Z,69.38
2022-11-07T10:52:16.911Z,69.11
2022-11-07T10:55:20.751Z,68.87
2022-11-07T10:58:35.886Z,68.68
2022-11-07T11:01:39.007Z,68.23
2022-11-07T11:04:50.894Z,67.88
2022-11-07T11:07:56.850Z,67.48
2022-11-07T11:11:00.006Z,66.95
2022-11-07T11:14:09.181Z,66.58
2022-11-07T11:17:26.500Z,66.36
2022-11-07T11:20:44.164Z,66.27
2022-11-07T11:23:48.357Z,65.77
2022-11-07T11:26:53.823Z,65.29
2022-11-07T11:29:57.103Z,64.94
2022-11-07T11:33:09.005Z,64.63
2022-11-07T11:36:23.387Z,64.27
2022-11-07T11:39:39.290Z,64.06
2022-11-07T11:43:00.011Z,63.52
2022-11-07T11:46:36.798Z,63.63
2022-11-07T11:49:59.441Z,63.28
2022-11-07T11:53:02.459Z,62.95
2022-11-07T11:56:09.160Z,62.71
2022-11-07T11:59:30.772Z,62.46
2022-11-07T12:02:48.429Z,62.43
2022-11-07T12:06:13.935Z,62.27
2022-11-07T12:09:33.132Z,62.10
2022-11-07T12:13:10.001Z,62.12
2022-11-07T12:16:31.167Z,62.15
2022-11-07T12:19:38.956Z,62.18
2022-11-07T12:22:53.078Z,62.00
2022-11-07T12:26:14.770Z,61.83
2022-11-07T12:29:34.942Z,61.81
2022-11-07T12:32:45.554Z,61.82
2022-11-07T12:36:00.431Z,61.83
2022-11-07T12:39:37.968Z,62.04
2022-11-07T12:43:13.793Z,62.39
2022-11-07T12:46:27.064Z,62.83
2022-11-07T12:50:04.353Z,62.80
2022-11-07T12:53:13.686Z,63.02
2022-11-07T12:56:23.339Z,63.10
2022-11-07T12:59:29.790Z,63.18
2022-11-07T13:02:53.923Z,63.25
2022-11-07T13:06:09.898Z,63.57
2022-11-07T13:09:31.427Z,63.69
2022-11-07T13:12:41.235Z,63.74
2022-11-07T13:16:13.396Z,63.76
2022-11-07T13:19:21.126Z,63.95
2022-11-07T13:22:32.682Z,64.07
2022-11-07T13:25:35.958Z,64.31
2022-11-07T13:28:40.254Z,64.36
2022-11-07T13:31:45.607Z,64.47
2022-11-07T13:35:07.183Z,64.57
2022-11-07T13:38:20.291Z,64.79
2022-11-07T13:41:25.097Z,64.96
2022-11-07T13:44:32.886Z,65.24
2022-11-07T13:47:40.775Z,65.40
2022-11-07T13:50:50.567Z,65.55
2022-11-07T13:54:04.833Z,65.60
2022-11-07T13:57:20.765Z,65.74
2022-11-07T14:00:23.940Z,65.95
2022-11-07T14:03:28.073Z,66.04
2022-11-07T14:06:32.113Z,66.20
2022-11-07T14:09:35.309Z,66.30
2022-11-07T14:12:40.023Z,66.43
2022-11-07T14:15:55.903Z,66.58
2022-11-07T14:19:07.110Z,66.54
2022-11-07T14:22:25.585Z,66.55
2022-11-07T14:25:33.546Z,66.61
2022-11-07T14:28:40.496Z,66.64
2022-11-07T14:31:45.448Z,66.78
2022-11-07T14:34:50.456Z,66.91
2022-11-07T14:37:54.214Z,66.98
2022-11-07T14:41:01.419Z,67.09
2022-11-07T14:44:12.766Z,67.25
2022-11-07T14:47:22.013Z,67.34
2022-11-07T14:50:28.038Z,67.45
2022-11-07T14:53:37.612Z,67.54
2022-11-07T14:56:45.605Z,67.61
2022-11-07T14:59:48.945Z,67.61
2022-11-07T15:02:55.393Z,67.56
2022-11-07T15:05:59.067Z,67.48
2022-11-07T15:09:05.627Z,67.52
2022-11-07T15:12:17.560Z,67.58
2022-11-07T15:15:35.654Z,67.53
2022-11-07T15:18:42.945Z,67.56
2022-11-07T15:21:58.069Z,67.55
2022-11-07T15:25:01.280Z,67.56
2022-11-07T15:28:19.942Z,67.60
2022-11-07T15:31:29.474Z,67.62
2022-11-07T15:34:58.291Z,67.74
2022-11-07T15:38:00.956Z,67.80
2022-11-07T15:41:04.161Z,67.79
2022-11-07T15:44:07.184Z,67.85
2022-11-07T15:47:19.288Z,67.87
2022-11-07T15:50:24.805Z,67.96
2022-11-07T15:53:29.433Z,68.05
2022-11-07T15:56:32.391Z,68.12
2022-11-07T15:59:37.144Z,68.17
2022-11-07T16:02:42.360Z,68.23
2022-11-07T16:05:47.342Z,68.32
2022-11-07T16:08:50.345Z,68.33
2022-11-07T16:11:53.323Z,68.40
2022-11-07T16:14:59.298Z,68.53
2022-11-07T16:18:02.828Z,68.58
2022-11-07T16:21:06.206Z,68.66
2022-11-07T16:24:09.444Z,68.73
2022-11-07T16:27:18.452Z,68.83
2022-11-07T16:30:22.236Z,68.93
2022-11-07T16:33:26.155Z,69.01
2022-11-07T16:36:32.395Z,69.14
2022-11-07T16:39:35.342Z,69.24
2022-11-07T16:42:38.359Z,69.36
2022-11-07T16:45:55.262Z,69.50
2022-11-07T16:49:12.655Z,69.62
2022-11-07T16:52:18.282Z,69.73
2022-11-07T16:55:21.163Z,69.84
2022-11-07T16:58:30.349Z,69.92
2022-11-07T17:01:34.277Z,70.00
2022-11-07T17:04:37.950Z,70.08
2022-11-07T17:07:41.025Z,70.17
2022-11-07T17:10:45.552Z,70.25
2022-11-07T17:13:48.524Z,70.32
2022-11-07T17:16:51.504Z,70.39
2022-11-07T17:19:54.480Z,70.48
2022-11-07T17:22:57.926Z,70.52
2022-11-07T17:26:02.586Z,70.58
2022-11-07T17:29:08.374Z,70.65
2022-11-07T17:32:11.260Z,70.69
2022-11-07T17:38:37.425Z,70.83
2022-11-07T17:41:40.983Z,70.87
2022-11-07T17:44:43.960Z,70.92
2022-11-07T17:47:46.923Z,70.95
2022-11-07T17:50:49.854Z,70.98
2022-11-07T17:53:53.907Z,70.99
2022-11-07T17:56:56.852Z,71.01
2022-11-07T18:00:00.062Z,71.03
2022-11-07T18:03:03.251Z,71.05
2022-11-07T18:06:06.490Z,71.07
2022-11-07T18:09:17.225Z,71.07
2022-11-07T18:12:20.121Z,71.12
2022-11-07T18:15:23.030Z,71.13
2022-11-07T18:18:27.166Z,71.18
2022-11-07T18:21:33.297Z,71.21
2022-11-07T18:24:36.319Z,71.27
2022-11-07T18:27:39.327Z,71.34
2022-11-07T18:30:42.354Z,71.40
2022-11-07T18:34:28.988Z,71.45
2022-11-07T18:37:40.749Z,71.45
2022-11-07T18:41:02.965Z,71.55
2022-11-07T18:44:23.153Z,71.65
2022-11-07T18:47:26.396Z,71.66
2022-11-07T18:50:29.496Z,71.67
2022-11-07T18:53:32.674Z,71.67
2022-11-07T18:56:35.737Z,71.73
2022-11-07T18:59:39.649Z,71.80
2022-11-07T19:02:42.627Z,71.82
2022-11-07T19:05:45.597Z,71.89
2022-11-07T19:08:49.252Z,71.95
2022-11-07T19:11:52.405Z,72.02
2022-11-07T19:14:55.567Z,72.09
2022-11-07T19:17:58.569Z,72.14
2022-11-07T19:24:35.381Z,72.24
2022-11-07T19:27:38.474Z,72.31
2022-11-07T19:30:47.395Z,72.36
2022-11-07T19:33:50.520Z,72.43
2022-11-07T19:36:53.793Z,72.47
2022-11-07T19:39:56.890Z,72.51
2022-11-07T19:43:01.540Z,72.56
2022-11-07T19:46:11.311Z,72.58
2022-11-07T19:49:14.288Z,72.61
2022-11-07T19:52:17.294Z,72.66
2022-11-07T19:55:20.343Z,72.69
2022-11-07T19:58:23.265Z,72.71
2022-11-07T20:01:29.781Z,72.76
2022-11-07T20:04:32.809Z,72.76
2022-11-07T20:07:35.959Z,72.76
2022-11-07T20:10:45.744Z,72.80
2022-11-07T20:13:48.862Z,72.85
2022-11-07T20:16:52.129Z,72.86
2022-11-07T20:19:55.192Z,72.87
2022-11-07T20:23:00.315Z,72.93
2022-11-07T20:26:15.037Z,72.96
2022-11-07T20:29:19.223Z,72.98
2022-11-07T20:32:22.348Z,72.98
2022-11-07T20:35:25.338Z,73.01
2022-11-07T20:38:29.679Z,73.05
2022-11-07T20:41:33.441Z,73.10
2022-11-07T20:44:36.431Z,73.14
2022-11-07T20:47:40.281Z,73.17
2022-11-07T20:50:43.393Z,73.22
2022-11-07T20:53:50.411Z,73.27
2022-11-07T20:56:53.797Z,73.30
2022-11-07T20:59:56.763Z,73.32
2022-11-07T21:02:59.833Z,73.38
2022-11-07T21:06:03.616Z,73.39
2022-11-07T21:09:07.472Z,73.42
2022-11-07T21:12:11.378Z,73.44
2022-11-07T21:15:14.487Z,73.45
2022-11-07T21:18:17.735Z,73.47
2022-11-07T21:21:23.679Z,73.51
2022-11-07T21:24:30.736Z,73.53
2022-11-07T21:27:36.345Z,73.57
2022-11-07T21:30:39.785Z,73.60
2022-11-07T21:33:42.881Z,73.65
2022-11-07T21:36:45.809Z,73.70
2022-11-07T21:39:48.832Z,73.73
2022-11-07T21:42:54.982Z,73.75
2022-11-07T21:46:19.292Z,73.78
2022-11-07T21:49:22.364Z,73.84
2022-11-07T21:52:25.507Z,73.88
2022-11-07T21:55:28.411Z,73.92
2022-11-07T21:58:31.432Z,73.94
2022-11-07T22:01:37.147Z,74.02
2022-11-07T22:04:42.949Z,74.08
2022-11-07T22:07:46.023Z,74.11
2022-11-07T22:10:49.126Z,74.15
2022-11-07T22:13:52.128Z,74.16
2022-11-07T22:16:55.917Z,74.17
2022-11-07T22:19:58.988Z,74.19
2022-11-07T22:23:02.064Z,74.24
2022-11-07T22:26:15.412Z,74.27
2022-11-07T22:29:18.975Z,74.29
2022-11-07T22:32:22.231Z,74.33
2022-11-07T22:35:25.393Z,74.34
2022-11-07T22:38:28.537Z,74.36
2022-11-07T22:41:31.789Z,74.33
2022-11-07T22:44:34.810Z,74.31
2022-11-07T22:47:37.899Z,74.31
2022-11-07T22:50:43.243Z,74.37
2022-11-07T22:53:46.403Z,74.45
2022-11-07T22:56:49.509Z,74.48
2022-11-07T22:59:53.503Z,74.56
2022-11-07T23:02:57.048Z,74.62
2022-11-07T23:06:04.712Z,74.67
2022-11-07T23:09:07.958Z,74.73
2022-11-07T23:12:11.035Z,74.79
2022-11-07T23:15:14.160Z,74.76
2022-11-07T23:18:17.377Z,74.81
2022-11-07T23:21:20.921Z,74.84
2022-11-07T23:24:24.232Z,74.92
2022-11-07T23:27:31.036Z,74.94
2022-11-07T23:30:37.996Z,74.98
2022-11-07T23:33:41.182Z,74.95
2022-11-07T23:36:44.974Z,75.01
2022-11-07T23:39:48.152Z,75.03
2022-11-07T23:42:51.192Z,75.05
2022-11-07T23:46:14.711Z,75.07
2022-11-07T23:49:36.198Z,75.01
2022-11-07T23:52:39.204Z,74.98
2022-11-07T23:55:42.458Z,74.92
2022-11-07T23:59:04.687Z,74.93
